Time;durP1;ratioP1;P1;durP2;ratioP2;P2;SDS_P1;SDS_P2;PMS_P1;PMS_P2;Temp;Humidity;BMP_temperature;BMP_pressure;BME280_temperature;BME280_humidity;BME280_pressure;Samples;Min_cycle;Max_cycle;Signal;HPM_P1;HPM_P2
2022/05/20 00:01:06;;;;;;;8.23;2.40;;;;;;;;;;5006865;28;20030;-73
2022/05/20 00:03:32;;;;;;;6.97;2.90;;;;;;;;;;5012803;28;20026;-74
2022/05/20 00:05:59;;;;;;;2.63;2.17;;;;;;;;;;5011548;28;20025;-73
2022/05/20 00:08:26;;;;;;;7.05;2.03;;;;;;;;;;5012413;28;20029;-75
2022/05/20 00:10:53;;;;;;;7.43;2.40;;;;;;;;;;5009892;28;20026;-73
2022/05/20 00:13:23;;;;;;;12.18;2.42;;;;;;;;;;5012736;28;20030;-75
2022/05/20 00:15:50;;;;;;;7.22;2.60;;;;;;;;;;5010523;28;20036;-73
2022/05/20 00:18:16;;;;;;;9.55;2.47;;;;;;;;;;5016219;28;20112;-73
2022/05/20 00:20:43;;;;;;;5.60;2.47;;;;;;;;;;5013399;28;20044;-74
2022/05/20 00:23:10;;;;;;;5.03;2.42;;;;;;;;;;5015911;28;20025;-74
2022/05/20 00:25:46;;;;;;;4.97;2.50;;;;;;;;;;4995957;28;20034;-74
2022/05/20 00:28:15;;;;;;;9.15;2.47;;;;;;;;;;5010465;28;20117;-74
2022/05/20 00:30:41;;;;;;;12.50;3.05;;;;;;;;;;5019039;28;20036;-74
2022/05/20 00:33:07;;;;;;;4.40;2.60;;;;;;;;;;5009228;28;20048;-74
2022/05/20 00:35:40;;;;;;;8.38;2.67;;;;;;;;;;5012555;28;20091;-74
2022/05/20 00:38:07;;;;;;;6.43;2.60;;;;;;;;;;5009854;28;20065;-74
2022/05/20 00:40:34;;;;;;;4.85;2.25;;;;;;;;;;5009403;28;20033;-74
2022/05/20 00:43:17;;;;;;;9.23;2.72;;;;;;;;;;5010813;28;20046;-73
2022/05/20 00:45:44;;;;;;;9.65;2.78;;;;;;;;;;5009530;28;20023;-75
2022/05/20 00:48:10;;;;;;;9.13;2.45;;;;;;;;;;5010205;28;20030;-74
2022/05/20 00:50:39;;;;;;;9.40;2.70;;;;;;;;;;5007614;28;20045;-74
2022/05/20 00:53:06;;;;;;;10.10;2.83;;;;;;;;;;5011812;28;20041;-74
2022/05/20 00:55:33;;;;;;;6.82;3.05;;;;;;;;;;5007311;28;20041;-72
2022/05/20 00:58:03;;;;;;;8.70;2.45;;;;;;;;;;5013734;28;20057;-73
2022/05/20 01:00:30;;;;;;;11.98;2.92;;;;;;;;;;5013983;28;20025;-74
2022/05/20 01:03:02;;;;;;;10.65;2.67;;;;;;;;;;5014948;28;20030;-74
2022/05/20 01:05:32;;;;;;;8.73;3.05;;;;;;;;;;5009010;28;20022;-75
2022/05/20 01:07:59;;;;;;;7.82;2.25;;;;;;;;;;5025370;28;20141;-75
2022/05/20 01:10:25;;;;;;;4.72;2.67;;;;;;;;;;5014176;28;20034;-74
2022/05/20 01:12:53;;;;;;;10.93;3.00;;;;;;;;;;5016096;28;20104;-75
2022/05/20 01:15:19;;;;;;;5.53;2.25;;;;;;;;;;5017537;28;20030;-74
2022/05/20 01:17:45;;;;;;;8.23;2.47;;;;;;;;;;5015483;28;20030;-74
2022/05/20 01:20:16;;;;;;;5.93;2.53;;;;;;;;;;5018836;28;20022;-76
2022/05/20 01:22:48;;;;;;;4.53;3.03;;;;;;;;;;5022900;28;20022;-73
2022/05/20 01:25:14;;;;;;;2.85;1.90;;;;;;;;;;5013150;28;20030;-73
2022/05/20 01:27:42;;;;;;;9.50;2.80;;;;;;;;;;5015118;28;20504;-75
2022/05/20 01:30:10;;;;;;;7.68;2.35;;;;;;;;;;5022396;28;20112;-75
2022/05/20 01:32:37;;;;;;;9.82;3.58;;;;;;;;;;5014011;28;20025;-75
2022/05/20 01:35:04;;;;;;;9.77;2.08;;;;;;;;;;5014689;28;21031;-75
2022/05/20 01:37:30;;;;;;;7.00;3.33;;;;;;;;;;5015572;28;20111;-72
2022/05/20 01:39:58;;;;;;;8.07;2.45;;;;;;;;;;5007731;28;20033;-74
2022/05/20 01:42:28;;;;;;;8.40;2.53;;;;;;;;;;5003603;28;20113;-74
2022/05/20 01:45:21;;;;;;;6.03;2.38;;;;;;;;;;5014691;28;20034;-74
2022/05/20 01:47:53;;;;;;;6.07;2.28;;;;;;;;;;5005176;28;20069;-74
2022/05/20 01:50:22;;;;;;;5.97;2.15;;;;;;;;;;5014022;28;20494;-75
2022/05/20 01:52:55;;;;;;;9.25;2.60;;;;;;;;;;5021278;28;20029;-73
2022/05/20 01:55:24;;;;;;;4.72;2.35;;;;;;;;;;5012759;28;20037;-74
2022/05/20 01:57:53;;;;;;;7.00;2.47;;;;;;;;;;5011105;28;20117;-74
2022/05/20 02:00:25;;;;;;;5.80;2.47;;;;;;;;;;5009741;28;20483;-74
2022/05/20 02:03:01;;;;;;;6.55;2.30;;;;;;;;;;5010992;28;20030;-75
2022/05/20 02:05:46;;;;;;;3.92;2.05;;;;;;;;;;5009145;28;20026;-74
2022/05/20 02:08:30;;;;;;;5.90;2.47;;;;;;;;;;5011649;28;20034;-72
2022/05/20 02:11:11;;;;;;;7.13;2.28;;;;;;;;;;5011660;28;20104;-74
2022/05/20 02:13:40;;;;;;;2.35;1.90;;;;;;;;;;5001578;28;20108;-74
2022/05/20 02:16:11;;;;;;;7.53;2.63;;;;;;;;;;5010273;28;20030;-74
2022/05/20 02:21:43;;;;;;;6.72;2.20;;;;;;;;;;5014007;28;20045;-74
2022/05/20 02:24:14;;;;;;;11.52;2.60;;;;;;;;;;5017831;28;20040;-73
2022/05/20 02:26:48;;;;;;;5.95;2.10;;;;;;;;;;5013418;28;20026;-73
2022/05/20 02:29:16;;;;;;;8.25;2.50;;;;;;;;;;5000530;28;20491;-74
2022/05/20 02:32:01;;;;;;;8.80;2.33;;;;;;;;;;5012730;28;20489;-73
2022/05/20 02:34:29;;;;;;;11.27;2.90;;;;;;;;;;5008718;28;20030;-73
2022/05/20 02:36:55;;;;;;;8.13;2.83;;;;;;;;;;5011431;28;20028;-73
2022/05/20 02:39:21;;;;;;;7.57;2.63;;;;;;;;;;5016120;28;20520;-72
2022/05/20 02:41:49;;;;;;;7.53;2.60;;;;;;;;;;5013010;28;20033;-75
2022/05/20 02:44:15;;;;;;;5.00;2.25;;;;;;;;;;5013645;28;20034;-74
2022/05/20 02:46:42;;;;;;;4.88;2.10;;;;;;;;;;5011821;28;20093;-75
2022/05/20 02:49:08;;;;;;;6.97;2.67;;;;;;;;;;5011480;28;20021;-75
2022/05/20 02:51:34;;;;;;;6.10;2.50;;;;;;;;;;5005709;28;20049;-74
2022/05/20 02:54:02;;;;;;;6.75;2.30;;;;;;;;;;5025521;28;20106;-74
2022/05/20 02:56:28;;;;;;;5.75;2.53;;;;;;;;;;5011857;28;20562;-76
2022/05/20 03:04:23;;;;;;;6.38;1.90;;;;;;;;;;5016809;28;20049;-74
2022/05/20 03:06:51;;;;;;;11.48;2.67;;;;;;;;;;5012038;28;20427;-74
2022/05/20 03:09:21;;;;;;;9.05;2.38;;;;;;;;;;5014873;28;20075;-74
2022/05/20 03:11:47;;;;;;;5.38;2.08;;;;;;;;;;5007317;28;20026;-74
2022/05/20 03:14:15;;;;;;;5.70;2.10;;;;;;;;;;5014056;28;20030;-73
2022/05/20 03:16:41;;;;;;;4.50;2.40;;;;;;;;;;5011759;28;20507;-75
2022/05/20 03:19:08;;;;;;;7.07;2.30;;;;;;;;;;5014161;28;20026;-74
2022/05/20 03:21:34;;;;;;;10.32;2.20;;;;;;;;;;5013686;28;20018;-75
2022/05/20 03:24:01;;;;;;;5.22;1.95;;;;;;;;;;5011045;28;20022;-73
2022/05/20 03:26:28;;;;;;;5.55;2.22;;;;;;;;;;5019251;28;20053;-73
2022/05/20 03:28:54;;;;;;;9.75;2.90;;;;;;;;;;5013383;28;20022;-73
2022/05/20 03:31:21;;;;;;;5.03;2.72;;;;;;;;;;5009835;28;20030;-73
2022/05/20 03:33:47;;;;;;;3.63;1.98;;;;;;;;;;5011458;28;20030;-74
2022/05/20 03:36:14;;;;;;;12.43;4.72;;;;;;;;;;5013817;28;20040;-74
2022/05/20 03:38:40;;;;;;;6.68;2.20;;;;;;;;;;5017139;28;20032;-72
2022/05/20 03:41:06;;;;;;;4.40;2.08;;;;;;;;;;5012472;28;20468;-75
2022/05/20 03:43:35;;;;;;;9.40;2.65;;;;;;;;;;5015518;28;20041;-73
2022/05/20 03:46:02;;;;;;;6.72;2.35;;;;;;;;;;5019884;28;20022;-74
2022/05/20 03:48:28;;;;;;;7.50;2.28;;;;;;;;;;5013139;28;20038;-73
2022/05/20 03:50:54;;;;;;;6.38;2.63;;;;;;;;;;5014416;28;20033;-74
2022/05/20 03:53:20;;;;;;;7.45;2.30;;;;;;;;;;5007831;28;20030;-74
2022/05/20 03:55:46;;;;;;;8.52;2.20;;;;;;;;;;5007806;28;20056;-72
2022/05/20 03:58:13;;;;;;;5.50;2.40;;;;;;;;;;5008310;28;20029;-73
2022/05/20 04:03:24;;;;;;;5.05;2.38;;;;;;;;;;5009318;28;20080;-73
2022/05/20 04:05:51;;;;;;;4.50;2.10;;;;;;;;;;5014984;28;20018;-72
2022/05/20 04:08:19;;;;;;;4.13;2.67;;;;;;;;;;5011752;28;20064;-74
2022/05/20 04:10:45;;;;;;;5.05;2.78;;;;;;;;;;5011282;28;20096;-74
2022/05/20 04:13:11;;;;;;;5.82;2.50;;;;;;;;;;5012645;28;20042;-74
2022/05/20 04:15:37;;;;;;;12.77;3.13;;;;;;;;;;5016384;28;20145;-75
2022/05/20 04:18:04;;;;;;;4.55;2.33;;;;;;;;;;5021522;28;20076;-72
2022/05/20 04:20:30;;;;;;;5.75;2.00;;;;;;;;;;5020039;28;20480;-74
2022/05/20 04:22:56;;;;;;;3.95;1.77;;;;;;;;;;5013864;28;20209;-73
2022/05/20 04:25:22;;;;;;;8.50;2.55;;;;;;;;;;5011664;28;20049;-74
2022/05/20 04:27:48;;;;;;;4.95;2.13;;;;;;;;;;5011744;28;20026;-75
2022/05/20 04:30:14;;;;;;;5.13;2.20;;;;;;;;;;5016342;28;20033;-74
2022/05/20 04:32:40;;;;;;;11.93;2.38;;;;;;;;;;5018532;28;20041;-73
2022/05/20 04:35:07;;;;;;;4.70;2.05;;;;;;;;;;5024565;28;20037;-75
2022/05/20 04:37:33;;;;;;;7.32;2.10;;;;;;;;;;5011702;28;20029;-74
2022/05/20 04:39:59;;;;;;;3.95;2.17;;;;;;;;;;5009970;28;20029;-72
2022/05/20 04:47:55;;;;;;;6.22;2.30;;;;;;;;;;5012331;28;20472;-74
2022/05/20 04:50:21;;;;;;;6.38;2.65;;;;;;;;;;5015533;28;20033;-72
2022/05/20 04:52:47;;;;;;;5.43;2.33;;;;;;;;;;5011890;28;20056;-73
2022/05/20 04:55:13;;;;;;;5.90;2.30;;;;;;;;;;5014832;28;21132;-74
2022/05/20 04:57:47;;;;;;;6.10;2.42;;;;;;;;;;5018365;28;20031;-74
2022/05/20 05:00:13;;;;;;;5.20;2.00;;;;;;;;;;5016015;28;20111;-73
2022/05/20 05:02:39;;;;;;;3.03;1.73;;;;;;;;;;5011941;28;20022;-74
2022/05/20 05:05:06;;;;;;;4.13;2.20;;;;;;;;;;5014363;28;20018;-74
2022/05/20 05:07:32;;;;;;;8.02;2.60;;;;;;;;;;5014500;28;20174;-74
2022/05/20 05:09:59;;;;;;;3.80;1.88;;;;;;;;;;5010286;28;20025;-75
2022/05/20 05:12:26;;;;;;;2.55;2.00;;;;;;;;;;5014563;28;20034;-74
2022/05/20 05:14:53;;;;;;;6.05;2.10;;;;;;;;;;5010885;28;20033;-74
2022/05/20 05:20:09;;;;;;;2.22;1.80;;;;;;;;;;5014079;28;20136;-73
2022/05/20 05:22:36;;;;;;;7.63;2.60;;;;;;;;;;5018879;28;20053;-74
2022/05/20 05:25:02;;;;;;;5.55;2.60;;;;;;;;;;5015892;28;20030;-74
2022/05/20 05:27:28;;;;;;;5.07;2.47;;;;;;;;;;5008279;28;20026;-74
2022/05/20 05:29:54;;;;;;;3.50;1.92;;;;;;;;;;5015450;28;20083;-74
2022/05/20 05:32:21;;;;;;;6.07;2.40;;;;;;;;;;5014245;28;20022;-73
2022/05/20 05:34:47;;;;;;;5.60;2.00;;;;;;;;;;5009094;28;20034;-73
2022/05/20 05:37:13;;;;;;;6.43;2.40;;;;;;;;;;5010673;28;20014;-73
2022/05/20 05:39:40;;;;;;;6.18;2.25;;;;;;;;;;5013826;28;20076;-72
2022/05/20 05:42:06;;;;;;;7.97;2.55;;;;;;;;;;5002003;28;23337;-73
2022/05/20 05:44:32;;;;;;;3.85;2.08;;;;;;;;;;5010779;28;20510;-73
2022/05/20 05:46:58;;;;;;;9.48;2.35;;;;;;;;;;5012806;28;20026;-72
2022/05/20 05:49:24;;;;;;;5.90;2.22;;;;;;;;;;5012060;28;20030;-71
2022/05/20 05:51:50;;;;;;;4.88;2.50;;;;;;;;;;5012018;28;20026;-73
2022/05/20 05:54:17;;;;;;;6.97;2.55;;;;;;;;;;5011168;28;20041;-73
2022/05/20 05:56:44;;;;;;;7.30;2.33;;;;;;;;;;5010241;28;20492;-73
2022/05/20 05:59:10;;;;;;;4.65;1.77;;;;;;;;;;5015017;28;20029;-74
2022/05/20 06:01:36;;;;;;;4.78;2.60;;;;;;;;;;5018677;28;20029;-72
2022/05/20 06:04:02;;;;;;;3.88;2.08;;;;;;;;;;5021227;28;20025;-73
2022/05/20 06:06:29;;;;;;;6.93;2.05;;;;;;;;;;5013910;28;20021;-72
2022/05/20 06:08:55;;;;;;;7.05;2.30;;;;;;;;;;5014379;28;20018;-73
2022/05/20 06:11:21;;;;;;;5.28;2.22;;;;;;;;;;5019097;28;20014;-74
2022/05/20 06:13:47;;;;;;;4.68;1.88;;;;;;;;;;5002116;28;20030;-73
2022/05/20 06:16:21;;;;;;;5.72;2.08;;;;;;;;;;5006364;28;20034;-73
2022/05/20 06:18:48;;;;;;;5.35;2.40;;;;;;;;;;5009450;28;20026;-74
2022/05/20 06:21:14;;;;;;;5.47;2.13;;;;;;;;;;5019274;28;20100;-72
2022/05/20 06:23:40;;;;;;;4.90;2.08;;;;;;;;;;5019969;28;20037;-74
2022/05/20 06:26:06;;;;;;;8.18;2.50;;;;;;;;;;5015182;28;20018;-74
2022/05/20 06:28:32;;;;;;;5.53;2.42;;;;;;;;;;5017578;28;20185;-73
2022/05/20 06:30:58;;;;;;;5.93;2.40;;;;;;;;;;5011678;28;20034;-73
2022/05/20 06:33:24;;;;;;;7.38;2.72;;;;;;;;;;5017147;28;20057;-72
2022/05/20 06:41:20;;;;;;;5.78;3.30;;;;;;;;;;5016026;28;20032;-72
2022/05/20 06:43:46;;;;;;;5.45;2.35;;;;;;;;;;5006223;28;20054;-73
2022/05/20 06:46:13;;;;;;;7.88;2.33;;;;;;;;;;5016890;28;20129;-72
2022/05/20 06:48:50;;;;;;;6.00;2.25;;;;;;;;;;5012343;28;20100;-73
2022/05/20 06:51:21;;;;;;;9.65;2.75;;;;;;;;;;5016679;28;20038;-74
2022/05/20 06:53:47;;;;;;;3.58;2.20;;;;;;;;;;5012358;28;20030;-75
2022/05/20 06:56:15;;;;;;;6.75;2.38;;;;;;;;;;5006008;28;20037;-75
2022/05/20 06:58:41;;;;;;;7.57;2.78;;;;;;;;;;5005487;28;20148;-74
2022/05/20 07:01:07;;;;;;;5.80;2.60;;;;;;;;;;5006304;28;20790;-74
2022/05/20 07:03:34;;;;;;;9.95;3.30;;;;;;;;;;5012867;28;20097;-74
2022/05/20 07:06:00;;;;;;;8.73;2.10;;;;;;;;;;5012706;28;20022;-76
2022/05/20 07:08:26;;;;;;;6.13;2.08;;;;;;;;;;5004801;28;20026;-74
2022/05/20 07:10:52;;;;;;;4.47;2.10;;;;;;;;;;5010368;28;20057;-75
2022/05/20 07:13:18;;;;;;;4.40;2.67;;;;;;;;;;5012465;28;20029;-74
2022/05/20 07:15:44;;;;;;;6.80;2.40;;;;;;;;;;5015163;28;20509;-72
2022/05/20 07:18:10;;;;;;;4.93;3.05;;;;;;;;;;5001562;28;20041;-75
2022/05/20 07:20:36;;;;;;;4.80;2.03;;;;;;;;;;5004472;28;20041;-75
2022/05/20 07:23:03;;;;;;;3.15;2.08;;;;;;;;;;5007113;28;20152;-76
2022/05/20 07:25:31;;;;;;;3.85;1.90;;;;;;;;;;5006630;28;20546;-76
2022/05/20 07:27:59;;;;;;;7.05;2.30;;;;;;;;;;5006589;28;20037;-77
2022/05/20 07:30:25;;;;;;;7.00;2.85;;;;;;;;;;5007117;28;20057;-76
2022/05/20 07:32:51;;;;;;;7.38;2.25;;;;;;;;;;5007301;28;20037;-74
2022/05/20 07:35:18;;;;;;;5.07;2.10;;;;;;;;;;5016739;28;20029;-73
2022/05/20 07:37:44;;;;;;;6.45;2.00;;;;;;;;;;5001177;28;20589;-76
2022/05/20 07:40:10;;;;;;;13.63;3.10;;;;;;;;;;5004086;28;20041;-74
2022/05/20 07:42:36;;;;;;;5.10;2.70;;;;;;;;;;4998723;28;20550;-73
2022/05/20 07:45:03;;;;;;;5.15;2.40;;;;;;;;;;5001937;28;20037;-74
2022/05/20 07:47:29;;;;;;;3.42;2.10;;;;;;;;;;5005160;28;20034;-75
2022/05/20 07:49:55;;;;;;;7.32;2.40;;;;;;;;;;5001262;28;20049;-75
2022/05/20 07:55:07;;;;;;;7.28;2.28;;;;;;;;;;5006077;28;20045;-76
2022/05/20 07:57:33;;;;;;;7.53;3.22;;;;;;;;;;5001603;28;20042;-74
2022/05/20 08:00:00;;;;;;;10.80;2.65;;;;;;;;;;5006527;28;20026;-74
2022/05/20 08:02:28;;;;;;;6.72;2.40;;;;;;;;;;5002389;28;20040;-75
2022/05/20 08:05:00;;;;;;;4.22;1.80;;;;;;;;;;5007180;28;20029;-75
2022/05/20 08:07:27;;;;;;;6.90;2.90;;;;;;;;;;5003874;28;20582;-75
2022/05/20 08:09:53;;;;;;;4.38;2.67;;;;;;;;;;5003046;28;20080;-75
2022/05/20 08:12:20;;;;;;;6.32;2.20;;;;;;;;;;5003931;28;20030;-74
2022/05/20 08:14:46;;;;;;;5.00;2.03;;;;;;;;;;5001901;28;20037;-76
2022/05/20 08:17:13;;;;;;;8.05;2.08;;;;;;;;;;5003934;28;20463;-75
2022/05/20 08:19:39;;;;;;;5.68;2.55;;;;;;;;;;5002185;28;20022;-75
2022/05/20 08:22:06;;;;;;;6.45;3.03;;;;;;;;;;5000334;28;20033;-73
2022/05/20 08:24:32;;;;;;;6.40;2.00;;;;;;;;;;5000334;28;20030;-74
2022/05/20 08:26:58;;;;;;;4.97;1.90;;;;;;;;;;4997327;28;20044;-73
2022/05/20 08:29:24;;;;;;;10.85;2.72;;;;;;;;;;5001900;28;20035;-75
2022/05/20 08:31:50;;;;;;;5.88;2.10;;;;;;;;;;5004564;28;20403;-77
2022/05/20 08:34:17;;;;;;;5.95;1.92;;;;;;;;;;5009367;28;20034;-76
2022/05/20 08:36:43;;;;;;;7.75;2.53;;;;;;;;;;5003108;28;20034;-75
2022/05/20 08:39:12;;;;;;;5.93;2.25;;;;;;;;;;5006952;28;20034;-75
2022/05/20 08:41:41;;;;;;;5.10;1.90;;;;;;;;;;5007926;28;20061;-75
2022/05/20 08:44:11;;;;;;;6.15;2.20;;;;;;;;;;5007091;28;20072;-73
2022/05/20 08:46:37;;;;;;;7.18;2.05;;;;;;;;;;4999754;28;20377;-74
2022/05/20 08:49:04;;;;;;;4.90;2.00;;;;;;;;;;4992033;28;20026;-75
2022/05/20 08:51:33;;;;;;;3.75;2.03;;;;;;;;;;4993394;28;20108;-76
2022/05/20 08:54:00;;;;;;;5.03;1.92;;;;;;;;;;5014541;28;20023;-75
2022/05/20 08:56:26;;;;;;;4.60;2.47;;;;;;;;;;4996244;28;20275;-74
2022/05/20 08:59:00;;;;;;;6.10;1.98;;;;;;;;;;4997395;28;20126;-74
2022/05/20 09:01:28;;;;;;;4.22;2.15;;;;;;;;;;4996058;28;20029;-74
2022/05/20 09:03:54;;;;;;;9.65;3.05;;;;;;;;;;4996705;28;20045;-75
2022/05/20 09:06:20;;;;;;;6.35;2.92;;;;;;;;;;4996906;28;20596;-75
2022/05/20 09:09:00;;;;;;;6.93;2.30;;;;;;;;;;4997993;28;20373;-75
2022/05/20 09:11:29;;;;;;;8.18;2.33;;;;;;;;;;4992154;28;20048;-74
2022/05/20 09:16:57;;;;;;;5.85;2.10;;;;;;;;;;4997785;28;21332;-73
2022/05/20 09:19:25;;;;;;;4.40;2.30;;;;;;;;;;5009376;28;20350;-74
2022/05/20 09:22:27;;;;;;;8.60;2.67;;;;;;;;;;5004365;28;20021;-76
2022/05/20 09:24:53;;;;;;;5.38;2.55;;;;;;;;;;4955428;28;20027;-74
2022/05/20 09:27:26;;;;;;;6.28;2.28;;;;;;;;;;4985668;28;20049;-74
2022/05/20 09:29:55;;;;;;;5.38;2.30;;;;;;;;;;4998718;28;20026;-75
2022/05/20 09:32:30;;;;;;;5.78;2.20;;;;;;;;;;5002381;28;20030;-74
2022/05/20 09:34:56;;;;;;;;;;;;;;;;;;5004282;28;20034;-74
2022/05/20 09:37:26;;;;;;;4.78;3.22;;;;;;;;;;5006133;28;19964;-74
2022/05/20 09:39:52;;;;;;;3.85;2.08;;;;;;;;;;5008216;28;20072;-75
2022/05/20 09:42:23;;;;;;;5.35;2.25;;;;;;;;;;5004818;28;20077;-76
2022/05/20 09:44:54;;;;;;;9.02;2.47;;;;;;;;;;5006483;28;20026;-76
2022/05/20 09:47:23;;;;;;;7.60;3.13;;;;;;;;;;5006557;28;20026;-76
2022/05/20 09:49:54;;;;;;;6.60;2.40;;;;;;;;;;5007095;28;20034;-75
2022/05/20 09:52:23;;;;;;;6.88;2.50;;;;;;;;;;5006262;28;20404;-75
2022/05/20 09:54:53;;;;;;;8.23;2.72;;;;;;;;;;5009284;28;20033;-76
2022/05/20 09:57:27;;;;;;;7.57;2.50;;;;;;;;;;5005692;28;20526;-75
2022/05/20 09:59:53;;;;;;;7.50;2.80;;;;;;;;;;5008799;28;20041;-75
2022/05/20 10:02:24;;;;;;;5.78;2.25;;;;;;;;;;5008144;28;20084;-75
2022/05/20 10:05:00;;;;;;;5.25;2.28;;;;;;;;;;5013109;28;20037;-76
2022/05/20 10:07:25;;;;;;;;;;;;;;;;;;5010587;28;20033;-76
2022/05/20 10:09:59;;;;;;;2.97;1.77;;;;;;;;;;5008471;28;20005;-77
2022/05/20 10:12:33;;;;;;;5.05;2.13;;;;;;;;;;5011746;28;20057;-76
2022/05/20 10:15:06;;;;;;;5.93;2.30;;;;;;;;;;5006277;28;20103;-77
2022/05/20 10:17:32;;;;;;;5.97;2.42;;;;;;;;;;5013710;28;20040;-75
2022/05/20 10:20:08;;;;;;;2.78;2.00;;;;;;;;;;5010463;28;20495;-73
2022/05/20 10:22:46;;;;;;;6.63;2.30;;;;;;;;;;5010613;28;20022;-76
2022/05/20 10:25:17;;;;;;;4.05;2.10;;;;;;;;;;5009170;28;20499;-74
2022/05/20 10:27:54;;;;;;;8.02;2.42;;;;;;;;;;5007762;28;20033;-74
2022/05/20 10:33:09;;;;;;;5.65;2.70;;;;;;;;;;5003623;28;20044;-74
2022/05/20 10:35:53;;;;;;;10.93;2.80;;;;;;;;;;5008650;28;20532;-75
2022/05/20 10:38:28;;;;;;;4.45;2.13;;;;;;;;;;5006022;28;20109;-75
2022/05/20 10:40:54;;;;;;;7.28;3.90;;;;;;;;;;5006575;28;20026;-73
2022/05/20 10:43:27;;;;;;;3.88;1.88;;;;;;;;;;5008384;28;20057;-73
2022/05/20 10:48:51;;;;;;;7.32;3.03;;;;;;;;;;5011590;28;20060;-75
2022/05/20 10:51:20;;;;;;;12.23;4.30;;;;;;;;;;5013318;28;20037;-73
2022/05/20 10:53:46;;;;;;;6.47;2.63;;;;;;;;;;5012195;28;20045;-73
2022/05/20 10:56:21;;;;;;;5.32;2.10;;;;;;;;;;5010033;28;20436;-73
2022/05/20 10:58:57;;;;;;;6.78;3.55;;;;;;;;;;5013893;28;20040;-73
2022/05/20 11:01:22;;;;;;;;;;;;;;;;;;5013177;28;20040;-73
2022/05/20 11:03:55;;;;;;;5.75;3.75;;;;;;;;;;5011000;28;19913;-73
2022/05/20 11:06:35;;;;;;;8.70;3.25;;;;;;;;;;5010490;28;20440;-75
2022/05/20 11:09:06;;;;;;;5.80;2.90;;;;;;;;;;5008548;28;20034;-74
2022/05/20 11:11:48;;;;;;;6.28;2.80;;;;;;;;;;5007411;28;20037;-75
2022/05/20 11:14:14;;;;;;;4.65;2.28;;;;;;;;;;5006543;28;20037;-75
2022/05/20 11:17:01;;;;;;;5.53;2.92;;;;;;;;;;5003383;28;20046;-74
2022/05/20 11:19:33;;;;;;;5.57;2.63;;;;;;;;;;5000343;28;20653;-75
2022/05/20 11:22:00;;;;;;;8.38;2.38;;;;;;;;;;4997126;28;20124;-74
2022/05/20 11:24:39;;;;;;;7.28;2.78;;;;;;;;;;4997200;28;20120;-75
2022/05/20 11:27:13;;;;;;;5.65;2.38;;;;;;;;;;4992311;28;20504;-73
2022/05/20 11:29:39;;;;;;;4.10;3.00;;;;;;;;;;5001496;28;20080;-72
2022/05/20 11:32:07;;;;;;;5.07;2.50;;;;;;;;;;5012890;28;20045;-73
2022/05/20 11:34:38;;;;;;;6.22;2.38;;;;;;;;;;5001300;28;20096;-74
2022/05/20 11:37:16;;;;;;;6.82;3.17;;;;;;;;;;4999513;28;20037;-73
2022/05/20 11:39:51;;;;;;;5.95;2.90;;;;;;;;;;5000670;28;20029;-72
2022/05/20 11:42:36;;;;;;;3.20;2.03;;;;;;;;;;4997750;28;20091;-74
2022/05/20 11:45:11;;;;;;;3.97;2.50;;;;;;;;;;4999875;28;20025;-73
2022/05/20 11:47:56;;;;;;;5.63;2.72;;;;;;;;;;4998264;28;20034;-77
2022/05/20 11:50:40;;;;;;;4.50;2.00;;;;;;;;;;4994455;28;20511;-75
2022/05/20 11:53:31;;;;;;;5.37;2.67;;;;;;;;;;4999954;28;20382;-74
2022/05/20 11:56:07;;;;;;;3.05;2.15;;;;;;;;;;4998373;28;22415;-73
2022/05/20 11:58:44;;;;;;;4.53;2.38;;;;;;;;;;5000422;28;20029;-73
2022/05/20 12:01:10;;;;;;;8.02;2.92;;;;;;;;;;4995334;28;20170;-74
2022/05/20 12:06:27;;;;;;;5.63;2.10;;;;;;;;;;4995859;28;20121;-74
2022/05/20 12:08:57;;;;;;;6.22;2.17;;;;;;;;;;4999862;28;20029;-75
2022/05/20 12:11:26;;;;;;;2.13;1.80;;;;;;;;;;4997446;28;20117;-74
2022/05/20 12:14:06;;;;;;;3.22;1.85;;;;;;;;;;4997025;28;20030;-74
2022/05/20 12:16:34;;;;;;;3.63;1.70;;;;;;;;;;5001014;28;20029;-74
2022/05/20 12:24:50;;;;;;;3.00;1.98;;;;;;;;;;5001836;28;20145;-74
2022/05/20 12:27:24;;;;;;;2.78;1.63;;;;;;;;;;5002939;28;20034;-75
2022/05/20 12:30:09;;;;;;;2.30;1.80;;;;;;;;;;5003066;28;20037;-75
2022/05/20 12:32:35;;;;;;;4.72;2.05;;;;;;;;;;5003189;28;20100;-75
2022/05/20 12:35:07;;;;;;;1.85;1.67;;;;;;;;;;5006453;28;20029;-75
2022/05/20 12:37:43;;;;;;;3.30;1.90;;;;;;;;;;5007524;28;20034;-74
2022/05/20 12:40:29;;;;;;;3.88;1.85;;;;;;;;;;4998275;28;20515;-74
2022/05/20 12:42:55;;;;;;;4.78;1.73;;;;;;;;;;4994487;28;20058;-74
2022/05/20 12:45:22;;;;;;;2.53;1.42;;;;;;;;;;5000649;28;20125;-75
2022/05/20 12:47:48;;;;;;;1.77;1.40;;;;;;;;;;5000536;28;20026;-76
2022/05/20 12:50:14;;;;;;;2.30;1.65;;;;;;;;;;5002171;28;20040;-74
2022/05/20 12:52:55;;;;;;;1.80;1.50;;;;;;;;;;5001683;28;20064;-76
2022/05/20 12:55:21;;;;;;;2.17;1.60;;;;;;;;;;5003678;28;20034;-75
2022/05/20 12:57:55;;;;;;;3.00;1.80;;;;;;;;;;5007818;28;20084;-75
2022/05/20 13:00:29;;;;;;;1.60;1.50;;;;;;;;;;5000118;28;20026;-76
2022/05/20 13:02:58;;;;;;;3.60;1.60;;;;;;;;;;5002822;28;20034;-75
2022/05/20 13:05:36;;;;;;;2.92;1.60;;;;;;;;;;5003560;28;20111;-76
2022/05/20 13:08:04;;;;;;;1.70;1.50;;;;;;;;;;4998545;28;20033;-76
2022/05/20 13:10:30;;;;;;;2.03;1.40;;;;;;;;;;4997974;28;20025;-76
2022/05/20 13:12:59;;;;;;;1.50;1.40;;;;;;;;;;5000099;28;20026;-76
2022/05/20 13:15:25;;;;;;;3.13;2.30;;;;;;;;;;4997703;28;20072;-75
2022/05/20 13:18:01;;;;;;;5.38;2.10;;;;;;;;;;5002604;28;20092;-76
2022/05/20 13:20:28;;;;;;;3.38;1.98;;;;;;;;;;4999705;28;20496;-77
2022/05/20 13:22:58;;;;;;;2.20;1.67;;;;;;;;;;4998414;28;20034;-77
2022/05/20 13:25:24;;;;;;;3.83;1.75;;;;;;;;;;5004685;28;20018;-78
2022/05/20 13:27:51;;;;;;;3.25;2.30;;;;;;;;;;5005941;28;20030;-77
2022/05/20 13:30:18;;;;;;;1.63;1.52;;;;;;;;;;5002263;28;20042;-76
2022/05/20 13:32:44;;;;;;;3.25;1.92;;;;;;;;;;5001180;28;20500;-75
2022/05/20 13:35:10;;;;;;;4.18;1.80;;;;;;;;;;5002195;28;20080;-76
2022/05/20 13:37:38;;;;;;;1.70;1.60;;;;;;;;;;4999046;28;20132;-78
2022/05/20 13:40:16;;;;;;;2.75;1.40;;;;;;;;;;5001037;28;20034;-78
2022/05/20 13:42:50;;;;;;;2.58;1.80;;;;;;;;;;5001129;28;20050;-76
2022/05/20 13:45:19;;;;;;;2.33;1.80;;;;;;;;;;4999979;28;20109;-75
2022/05/20 13:50:31;;;;;;;2.55;1.60;;;;;;;;;;4996453;28;20096;-76
2022/05/20 13:52:58;;;;;;;2.45;1.73;;;;;;;;;;5001309;28;20663;-76
2022/05/20 13:55:33;;;;;;;3.58;2.25;;;;;;;;;;4999315;28;20726;-77
2022/05/20 13:57:59;;;;;;;;;;;;;;;;;;5019342;28;20391;-77
2022/05/20 14:00:36;;;;;;;5.22;2.22;;;;;;;;;;4999657;28;20458;-77
2022/05/20 14:03:04;;;;;;;3.75;1.70;;;;;;;;;;5002582;28;20552;-76
2022/05/20 14:05:39;;;;;;;2.45;1.80;;;;;;;;;;5006906;28;20029;-75
2022/05/20 14:08:05;;;;;;;4.10;1.90;;;;;;;;;;5009479;28;20029;-76
2022/05/20 14:10:33;;;;;;;3.25;1.63;;;;;;;;;;5007904;28;20022;-77
2022/05/20 14:13:05;;;;;;;3.17;2.28;;;;;;;;;;5011558;28;20022;-76
2022/05/20 14:15:51;;;;;;;5.38;2.38;;;;;;;;;;5002785;28;20028;-75
2022/05/20 14:18:29;;;;;;;4.63;1.90;;;;;;;;;;5001171;28;20492;-77
2022/05/20 14:21:00;;;;;;;2.80;1.80;;;;;;;;;;4999771;28;20327;-75
2022/05/20 14:23:28;;;;;;;3.20;1.55;;;;;;;;;;4998667;28;20030;-77
2022/05/20 14:25:59;;;;;;;3.13;1.98;;;;;;;;;;5000626;28;21093;-76
2022/05/20 14:28:41;;;;;;;5.95;2.17;;;;;;;;;;4995403;28;20061;-76
2022/05/20 14:31:11;;;;;;;3.15;1.80;;;;;;;;;;5002482;28;20084;-75
2022/05/20 14:33:40;;;;;;;5.68;2.60;;;;;;;;;;4998667;28;20030;-76
2022/05/20 14:36:08;;;;;;;3.40;1.80;;;;;;;;;;5001796;28;20037;-76
2022/05/20 14:38:39;;;;;;;4.53;1.95;;;;;;;;;;4999867;28;20022;-75
2022/05/20 14:41:06;;;;;;;3.60;1.70;;;;;;;;;;5000231;28;20575;-75
2022/05/20 14:43:34;;;;;;;3.85;1.75;;;;;;;;;;5005314;28;20133;-75
2022/05/20 14:46:01;;;;;;;5.47;1.85;;;;;;;;;;5001680;28;20650;-76
2022/05/20 14:48:41;;;;;;;4.70;1.95;;;;;;;;;;5003052;28;20096;-77
2022/05/20 14:51:21;;;;;;;3.78;1.58;;;;;;;;;;4996689;28;20041;-76
2022/05/20 14:53:48;;;;;;;4.30;1.85;;;;;;;;;;5012015;28;20061;-76
2022/05/20 14:56:50;;;;;;;4.40;1.80;;;;;;;;;;4997099;28;20039;-76
2022/05/20 14:59:31;;;;;;;3.70;1.90;;;;;;;;;;4940684;28;21008;-77
2022/05/20 15:01:57;;;;;;;2.83;2.00;;;;;;;;;;5002486;28;20042;-80
2022/05/20 15:04:24;;;;;;;3.53;1.67;;;;;;;;;;5006854;28;20026;-78
2022/05/20 15:06:50;;;;;;;4.32;2.10;;;;;;;;;;5005349;28;20383;-76
2022/05/20 15:09:29;;;;;;;2.70;1.70;;;;;;;;;;5000870;28;20029;-76
2022/05/20 15:11:55;;;;;;;4.43;1.67;;;;;;;;;;5006943;28;20140;-76
2022/05/20 15:14:22;;;;;;;3.83;1.70;;;;;;;;;;5004789;28;20571;-76
2022/05/20 15:16:49;;;;;;;4.85;2.13;;;;;;;;;;5004423;28;20038;-76
2022/05/20 15:19:15;;;;;;;6.13;2.08;;;;;;;;;;5018666;28;20042;-76
2022/05/20 15:21:42;;;;;;;3.17;1.90;;;;;;;;;;5005320;28;20056;-77
2022/05/20 15:24:10;;;;;;;2.28;1.70;;;;;;;;;;5009310;28;20026;-77
2022/05/20 15:26:37;;;;;;;6.75;2.80;;;;;;;;;;5008161;28;20030;-76
2022/05/20 15:29:05;;;;;;;5.00;2.22;;;;;;;;;;5007274;28;20080;-76
2022/05/20 15:37:05;;;;;;;4.93;2.83;;;;;;;;;;5003678;28;20129;-76
2022/05/20 15:39:32;;;;;;;4.20;2.33;;;;;;;;;;5004478;28;20018;-76
2022/05/20 15:41:59;;;;;;;3.83;2.38;;;;;;;;;;5005318;28;20022;-77
2022/05/20 15:44:26;;;;;;;8.88;3.20;;;;;;;;;;5005414;28;20595;-78
2022/05/20 15:46:52;;;;;;;4.95;2.00;;;;;;;;;;5004303;28;20034;-78
2022/05/20 15:49:18;;;;;;;4.85;2.05;;;;;;;;;;5005084;28;21378;-76